Index of /20260426/WXO-DD/model_rdps/10km/00/036
Name Last modified Size Description
Parent Directory -
20260426T00Z_MSC_RDPS_AbsoluteVorticity_IsbL-0250_RLatLon0.09_PT036H.grib2 2026-04-26 02:49 482K
20260426T00Z_MSC_RDPS_AbsoluteVorticity_IsbL-0500_RLatLon0.09_PT036H.grib2 2026-04-26 02:49 556K
20260426T00Z_MSC_RDPS_AbsoluteVorticity_IsbL-0700_RLatLon0.09_PT036H.grib2 2026-04-26 02:49 615K
20260426T00Z_MSC_RDPS_AbsoluteVorticity_IsbL-0850_RLatLon0.09_PT036H.grib2 2026-04-26 02:49 783K
20260426T00Z_MSC_RDPS_AirTemp_AGL-120m_RLatLon0.09_PT036H.grib2 2026-04-26 02:49 385K
20260426T00Z_MSC_RDPS_AirTemp_AGL-2m_RLatLon0.09_PT036H.grib2 2026-04-26 02:49 646K
20260426T00Z_MSC_RDPS_AirTemp_AGL-40m_RLatLon0.09_PT036H.grib2 2026-04-26 02:49 415K
20260426T00Z_MSC_RDPS_AirTemp_AGL-80m_RLatLon0.09_PT036H.grib2 2026-04-26 02:49 407K
20260426T00Z_MSC_RDPS_AirTemp_IsbL-0001_RLatLon0.09_PT036H.grib2 2026-04-26 02:49 261K
20260426T00Z_MSC_RDPS_AirTemp_IsbL-0005_RLatLon0.09_PT036H.grib2 2026-04-26 02:49 292K
20260426T00Z_MSC_RDPS_AirTemp_IsbL-0010_RLatLon0.09_PT036H.grib2 2026-04-26 02:49 305K
20260426T00Z_MSC_RDPS_AirTemp_IsbL-0020_RLatLon0.09_PT036H.grib2 2026-04-26 02:49 321K
20260426T00Z_MSC_RDPS_AirTemp_IsbL-0030_RLatLon0.09_PT036H.grib2 2026-04-26 02:49 339K
20260426T00Z_MSC_RDPS_AirTemp_IsbL-0050_RLatLon0.09_PT036H.grib2 2026-04-26 02:49 316K
20260426T00Z_MSC_RDPS_AirTemp_IsbL-0100_RLatLon0.09_PT036H.grib2 2026-04-26 02:49 417K
20260426T00Z_MSC_RDPS_AirTemp_IsbL-0150_RLatLon0.09_PT036H.grib2 2026-04-26 02:49 411K
20260426T00Z_MSC_RDPS_AirTemp_IsbL-0175_RLatLon0.09_PT036H.grib2 2026-04-26 02:49 401K
20260426T00Z_MSC_RDPS_AirTemp_IsbL-0200_RLatLon0.09_PT036H.grib2 2026-04-26 02:49 410K
20260426T00Z_MSC_RDPS_AirTemp_IsbL-0225_RLatLon0.09_PT036H.grib2 2026-04-26 02:49 412K
20260426T00Z_MSC_RDPS_AirTemp_IsbL-0250_RLatLon0.09_PT036H.grib2 2026-04-26 02:49 417K
20260426T00Z_MSC_RDPS_AirTemp_IsbL-0275_RLatLon0.09_PT036H.grib2 2026-04-26 02:49 399K
20260426T00Z_MSC_RDPS_AirTemp_IsbL-0300_RLatLon0.09_PT036H.grib2 2026-04-26 02:49 405K
20260426T00Z_MSC_RDPS_AirTemp_IsbL-0350_RLatLon0.09_PT036H.grib2 2026-04-26 02:49 418K
20260426T00Z_MSC_RDPS_AirTemp_IsbL-0400_RLatLon0.09_PT036H.grib2 2026-04-26 02:49 418K
20260426T00Z_MSC_RDPS_AirTemp_IsbL-0450_RLatLon0.09_PT036H.grib2 2026-04-26 02:49 426K
20260426T00Z_MSC_RDPS_AirTemp_IsbL-0500_RLatLon0.09_PT036H.grib2 2026-04-26 02:49 405K
20260426T00Z_MSC_RDPS_AirTemp_IsbL-0550_RLatLon0.09_PT036H.grib2 2026-04-26 02:49 423K
20260426T00Z_MSC_RDPS_AirTemp_IsbL-0600_RLatLon0.09_PT036H.grib2 2026-04-26 02:49 439K
20260426T00Z_MSC_RDPS_AirTemp_IsbL-0650_RLatLon0.09_PT036H.grib2 2026-04-26 02:49 453K
20260426T00Z_MSC_RDPS_AirTemp_IsbL-0700_RLatLon0.09_PT036H.grib2 2026-04-26 02:49 476K
20260426T00Z_MSC_RDPS_AirTemp_IsbL-0750_RLatLon0.09_PT036H.grib2 2026-04-26 02:49 408K
20260426T00Z_MSC_RDPS_AirTemp_IsbL-0800_RLatLon0.09_PT036H.grib2 2026-04-26 02:49 460K
20260426T00Z_MSC_RDPS_AirTemp_IsbL-0850_RLatLon0.09_PT036H.grib2 2026-04-26 02:49 508K
20260426T00Z_MSC_RDPS_AirTemp_IsbL-0875_RLatLon0.09_PT036H.grib2 2026-04-26 02:49 521K
20260426T00Z_MSC_RDPS_AirTemp_IsbL-0900_RLatLon0.09_PT036H.grib2 2026-04-26 02:49 524K
20260426T00Z_MSC_RDPS_AirTemp_IsbL-0925_RLatLon0.09_PT036H.grib2 2026-04-26 02:49 525K
20260426T00Z_MSC_RDPS_AirTemp_IsbL-0950_RLatLon0.09_PT036H.grib2 2026-04-26 02:49 526K
20260426T00Z_MSC_RDPS_AirTemp_IsbL-0970_RLatLon0.09_PT036H.grib2 2026-04-26 02:49 526K
20260426T00Z_MSC_RDPS_AirTemp_IsbL-0985_RLatLon0.09_PT036H.grib2 2026-04-26 02:49 521K
20260426T00Z_MSC_RDPS_AirTemp_IsbL-1000_RLatLon0.09_PT036H.grib2 2026-04-26 02:49 505K
20260426T00Z_MSC_RDPS_AirTemp_IsbL-1015_RLatLon0.09_PT036H.grib2 2026-04-26 02:49 496K
20260426T00Z_MSC_RDPS_Albedo_Sfc_RLatLon0.09_PT036H.grib2 2026-04-26 02:49 159K
20260426T00Z_MSC_RDPS_CAPE_Sfc_RLatLon0.09_PT036H.grib2 2026-04-26 02:49 1.7M
20260426T00Z_MSC_RDPS_CIN_Sfc_RLatLon0.09_PT036H.grib2 2026-04-26 02:49 1.1M
20260426T00Z_MSC_RDPS_CloudWater_EAtm_RLatLon0.09_PT036H.grib2 2026-04-26 02:49 218K
20260426T00Z_MSC_RDPS_ConvectivePrecip-Accum_Sfc_RLatLon0.09_PT036H.grib2 2026-04-26 02:49 1.0M
20260426T00Z_MSC_RDPS_DewPointDepression_AGL-2m_RLatLon0.09_PT036H.grib2 2026-04-26 02:49 396K
20260426T00Z_MSC_RDPS_DewPointDepression_IsbL-0001_RLatLon0.09_PT036H.grib2 2026-04-26 02:49 193
20260426T00Z_MSC_RDPS_DewPointDepression_IsbL-0005_RLatLon0.09_PT036H.grib2 2026-04-26 02:49 193
20260426T00Z_MSC_RDPS_DewPointDepression_IsbL-0010_RLatLon0.09_PT036H.grib2 2026-04-26 02:49 193
20260426T00Z_MSC_RDPS_DewPointDepression_IsbL-0020_RLatLon0.09_PT036H.grib2 2026-04-26 02:49 193
20260426T00Z_MSC_RDPS_DewPointDepression_IsbL-0030_RLatLon0.09_PT036H.grib2 2026-04-26 02:49 193
20260426T00Z_MSC_RDPS_DewPointDepression_IsbL-0050_RLatLon0.09_PT036H.grib2 2026-04-26 02:49 90K
20260426T00Z_MSC_RDPS_DewPointDepression_IsbL-0100_RLatLon0.09_PT036H.grib2 2026-04-26 02:49 126K
20260426T00Z_MSC_RDPS_DewPointDepression_IsbL-0150_RLatLon0.09_PT036H.grib2 2026-04-26 02:49 148K
20260426T00Z_MSC_RDPS_DewPointDepression_IsbL-0175_RLatLon0.09_PT036H.grib2 2026-04-26 02:49 177K
20260426T00Z_MSC_RDPS_DewPointDepression_IsbL-0200_RLatLon0.09_PT036H.grib2 2026-04-26 02:49 219K
20260426T00Z_MSC_RDPS_DewPointDepression_IsbL-0225_RLatLon0.09_PT036H.grib2 2026-04-26 02:49 258K
20260426T00Z_MSC_RDPS_DewPointDepression_IsbL-0250_RLatLon0.09_PT036H.grib2 2026-04-26 02:49 293K
20260426T00Z_MSC_RDPS_DewPointDepression_IsbL-0275_RLatLon0.09_PT036H.grib2 2026-04-26 02:49 304K
20260426T00Z_MSC_RDPS_DewPointDepression_IsbL-0300_RLatLon0.09_PT036H.grib2 2026-04-26 02:49 320K
20260426T00Z_MSC_RDPS_DewPointDepression_IsbL-0350_RLatLon0.09_PT036H.grib2 2026-04-26 02:49 327K
20260426T00Z_MSC_RDPS_DewPointDepression_IsbL-0400_RLatLon0.09_PT036H.grib2 2026-04-26 02:49 344K
20260426T00Z_MSC_RDPS_DewPointDepression_IsbL-0450_RLatLon0.09_PT036H.grib2 2026-04-26 02:49 356K
20260426T00Z_MSC_RDPS_DewPointDepression_IsbL-0500_RLatLon0.09_PT036H.grib2 2026-04-26 02:49 361K
20260426T00Z_MSC_RDPS_DewPointDepression_IsbL-0550_RLatLon0.09_PT036H.grib2 2026-04-26 02:49 367K
20260426T00Z_MSC_RDPS_DewPointDepression_IsbL-0600_RLatLon0.09_PT036H.grib2 2026-04-26 02:49 377K
20260426T00Z_MSC_RDPS_DewPointDepression_IsbL-0650_RLatLon0.09_PT036H.grib2 2026-04-26 02:49 383K
20260426T00Z_MSC_RDPS_DewPointDepression_IsbL-0700_RLatLon0.09_PT036H.grib2 2026-04-26 02:49 393K
20260426T00Z_MSC_RDPS_DewPointDepression_IsbL-0750_RLatLon0.09_PT036H.grib2 2026-04-26 02:49 418K
20260426T00Z_MSC_RDPS_DewPointDepression_IsbL-0800_RLatLon0.09_PT036H.grib2 2026-04-26 02:49 456K
20260426T00Z_MSC_RDPS_DewPointDepression_IsbL-0850_RLatLon0.09_PT036H.grib2 2026-04-26 02:49 479K
20260426T00Z_MSC_RDPS_DewPointDepression_IsbL-0875_RLatLon0.09_PT036H.grib2 2026-04-26 02:49 476K
20260426T00Z_MSC_RDPS_DewPointDepression_IsbL-0900_RLatLon0.09_PT036H.grib2 2026-04-26 02:49 463K
20260426T00Z_MSC_RDPS_DewPointDepression_IsbL-0925_RLatLon0.09_PT036H.grib2 2026-04-26 02:49 453K
20260426T00Z_MSC_RDPS_DewPointDepression_IsbL-0950_RLatLon0.09_PT036H.grib2 2026-04-26 02:49 443K
20260426T00Z_MSC_RDPS_DewPointDepression_IsbL-0970_RLatLon0.09_PT036H.grib2 2026-04-26 02:49 438K
20260426T00Z_MSC_RDPS_DewPointDepression_IsbL-0985_RLatLon0.09_PT036H.grib2 2026-04-26 02:49 435K
20260426T00Z_MSC_RDPS_DewPointDepression_IsbL-1000_RLatLon0.09_PT036H.grib2 2026-04-26 02:49 432K
20260426T00Z_MSC_RDPS_DewPointDepression_IsbL-1015_RLatLon0.09_PT036H.grib2 2026-04-26 02:49 424K
20260426T00Z_MSC_RDPS_DewPoint_AGL-2m_RLatLon0.09_PT036H.grib2 2026-04-26 02:49 313K
20260426T00Z_MSC_RDPS_DownwardLongwaveRadiationFlux-Accum_Sfc_RLatLon0.09_PT036H.grib2 2026-04-26 02:49 381K
20260426T00Z_MSC_RDPS_DownwardShortwaveRadiationFlux-Accum_NTAtm_RLatLon0.09_PT036H.grib2 2026-04-26 02:49 113K
20260426T00Z_MSC_RDPS_DownwardShortwaveRadiationFlux-Accum_Sfc_RLatLon0.09_PT036H.grib2 2026-04-26 02:49 540K
20260426T00Z_MSC_RDPS_FreezingRain-Accum12h_Sfc_RLatLon0.09_PT036H.grib2 2026-04-26 02:49 83K
20260426T00Z_MSC_RDPS_FreezingRain-Accum1h_Sfc_RLatLon0.09_PT036H.grib2 2026-04-26 02:49 54K
20260426T00Z_MSC_RDPS_FreezingRain-Accum24h_Sfc_RLatLon0.09_PT036H.grib2 2026-04-26 02:49 110K
20260426T00Z_MSC_RDPS_FreezingRain-Accum3h_Sfc_RLatLon0.09_PT036H.grib2 2026-04-26 02:49 65K
20260426T00Z_MSC_RDPS_FreezingRain-Accum6h_Sfc_RLatLon0.09_PT036H.grib2 2026-04-26 02:49 78K
20260426T00Z_MSC_RDPS_FreezingRain-Accum_Sfc_RLatLon0.09_PT036H.grib2 2026-04-26 02:49 133K
20260426T00Z_MSC_RDPS_GeopotentialHeight_IsbL-0001_RLatLon0.09_PT036H.grib2 2026-04-26 02:49 270K
20260426T00Z_MSC_RDPS_GeopotentialHeight_IsbL-0005_RLatLon0.09_PT036H.grib2 2026-04-26 02:49 310K
20260426T00Z_MSC_RDPS_GeopotentialHeight_IsbL-0010_RLatLon0.09_PT036H.grib2 2026-04-26 02:49 307K
20260426T00Z_MSC_RDPS_GeopotentialHeight_IsbL-0020_RLatLon0.09_PT036H.grib2 2026-04-26 02:49 305K
20260426T00Z_MSC_RDPS_GeopotentialHeight_IsbL-0030_RLatLon0.09_PT036H.grib2 2026-04-26 02:49 308K
20260426T00Z_MSC_RDPS_GeopotentialHeight_IsbL-0050_RLatLon0.09_PT036H.grib2 2026-04-26 02:49 308K
20260426T00Z_MSC_RDPS_GeopotentialHeight_IsbL-0100_RLatLon0.09_PT036H.grib2 2026-04-26 02:49 287K
20260426T00Z_MSC_RDPS_GeopotentialHeight_IsbL-0150_RLatLon0.09_PT036H.grib2 2026-04-26 02:49 226K
20260426T00Z_MSC_RDPS_GeopotentialHeight_IsbL-0175_RLatLon0.09_PT036H.grib2 2026-04-26 02:49 228K
20260426T00Z_MSC_RDPS_GeopotentialHeight_IsbL-0200_RLatLon0.09_PT036H.grib2 2026-04-26 02:49 230K
20260426T00Z_MSC_RDPS_GeopotentialHeight_IsbL-0225_RLatLon0.09_PT036H.grib2 2026-04-26 02:49 232K
20260426T00Z_MSC_RDPS_GeopotentialHeight_IsbL-0250_RLatLon0.09_PT036H.grib2 2026-04-26 02:49 234K
20260426T00Z_MSC_RDPS_GeopotentialHeight_IsbL-0275_RLatLon0.09_PT036H.grib2 2026-04-26 02:49 233K
20260426T00Z_MSC_RDPS_GeopotentialHeight_IsbL-0300_RLatLon0.09_PT036H.grib2 2026-04-26 02:49 233K
20260426T00Z_MSC_RDPS_GeopotentialHeight_IsbL-0350_RLatLon0.09_PT036H.grib2 2026-04-26 02:49 229K
20260426T00Z_MSC_RDPS_GeopotentialHeight_IsbL-0400_RLatLon0.09_PT036H.grib2 2026-04-26 02:49 227K
20260426T00Z_MSC_RDPS_GeopotentialHeight_IsbL-0450_RLatLon0.09_PT036H.grib2 2026-04-26 02:49 296K
20260426T00Z_MSC_RDPS_GeopotentialHeight_IsbL-0500_RLatLon0.09_PT036H.grib2 2026-04-26 02:49 290K
20260426T00Z_MSC_RDPS_GeopotentialHeight_IsbL-0550_RLatLon0.09_PT036H.grib2 2026-04-26 02:49 286K
20260426T00Z_MSC_RDPS_GeopotentialHeight_IsbL-0600_RLatLon0.09_PT036H.grib2 2026-04-26 02:49 283K
20260426T00Z_MSC_RDPS_GeopotentialHeight_IsbL-0650_RLatLon0.09_PT036H.grib2 2026-04-26 02:49 280K
20260426T00Z_MSC_RDPS_GeopotentialHeight_IsbL-0700_RLatLon0.09_PT036H.grib2 2026-04-26 02:49 279K
20260426T00Z_MSC_RDPS_GeopotentialHeight_IsbL-0750_RLatLon0.09_PT036H.grib2 2026-04-26 02:49 252K
20260426T00Z_MSC_RDPS_GeopotentialHeight_IsbL-0800_RLatLon0.09_PT036H.grib2 2026-04-26 02:49 260K
20260426T00Z_MSC_RDPS_GeopotentialHeight_IsbL-0850_RLatLon0.09_PT036H.grib2 2026-04-26 02:49 268K
20260426T00Z_MSC_RDPS_GeopotentialHeight_IsbL-0875_RLatLon0.09_PT036H.grib2 2026-04-26 02:49 269K
20260426T00Z_MSC_RDPS_GeopotentialHeight_IsbL-0900_RLatLon0.09_PT036H.grib2 2026-04-26 02:49 274K
20260426T00Z_MSC_RDPS_GeopotentialHeight_IsbL-0925_RLatLon0.09_PT036H.grib2 2026-04-26 02:49 276K
20260426T00Z_MSC_RDPS_GeopotentialHeight_IsbL-0950_RLatLon0.09_PT036H.grib2 2026-04-26 02:49 279K
20260426T00Z_MSC_RDPS_GeopotentialHeight_IsbL-0970_RLatLon0.09_PT036H.grib2 2026-04-26 02:49 283K
20260426T00Z_MSC_RDPS_GeopotentialHeight_IsbL-0985_RLatLon0.09_PT036H.grib2 2026-04-26 02:49 290K
20260426T00Z_MSC_RDPS_GeopotentialHeight_IsbL-1000_RLatLon0.09_PT036H.grib2 2026-04-26 02:49 300K
20260426T00Z_MSC_RDPS_GeopotentialHeight_IsbL-1015_RLatLon0.09_PT036H.grib2 2026-04-26 02:49 313K
20260426T00Z_MSC_RDPS_Humidex_Sfc_RLatLon0.09_PT036H.grib2 2026-04-26 02:49 2.4M
20260426T00Z_MSC_RDPS_IcePellets-Accum12h_Sfc_RLatLon0.09_PT036H.grib2 2026-04-26 02:49 9.6K
20260426T00Z_MSC_RDPS_IcePellets-Accum1h_Sfc_RLatLon0.09_PT036H.grib2 2026-04-26 02:49 8.0K
20260426T00Z_MSC_RDPS_IcePellets-Accum24h_Sfc_RLatLon0.09_PT036H.grib2 2026-04-26 02:49 17K
20260426T00Z_MSC_RDPS_IcePellets-Accum3h_Sfc_RLatLon0.09_PT036H.grib2 2026-04-26 02:49 10K
20260426T00Z_MSC_RDPS_IcePellets-Accum6h_Sfc_RLatLon0.09_PT036H.grib2 2026-04-26 02:49 12K
20260426T00Z_MSC_RDPS_IcePellets-Accum_Sfc_RLatLon0.09_PT036H.grib2 2026-04-26 02:49 29K
20260426T00Z_MSC_RDPS_KIndex_Sfc_RLatLon0.09_PT036H.grib2 2026-04-26 02:49 2.5M
20260426T00Z_MSC_RDPS_LatentHeatNetFlux_Sfc_RLatLon0.09_PT036H.grib2 2026-04-26 02:49 333K
20260426T00Z_MSC_RDPS_LiftedIndex-MU-VT_IsbL-0500_RLatLon0.09_PT036H.grib2 2026-04-26 02:49 2.4M
20260426T00Z_MSC_RDPS_NetLongwaveRadiationFlux-Accum_Sfc_RLatLon0.09_PT036H.grib2 2026-04-26 02:49 508K
20260426T00Z_MSC_RDPS_NetShortwaveRadiationFlux-Accum_Sfc_RLatLon0.09_PT036H.grib2 2026-04-26 02:49 679K
20260426T00Z_MSC_RDPS_PlanetaryBoundaryLayerHeight_Sfc_RLatLon0.09_PT036H.grib2 2026-04-26 02:49 1.1M
20260426T00Z_MSC_RDPS_Precip-Accum12h_Sfc_RLatLon0.09_PT036H.grib2 2026-04-26 02:49 1.7M
20260426T00Z_MSC_RDPS_Precip-Accum1h_Sfc_RLatLon0.09_PT036H.grib2 2026-04-26 02:49 1.3M
20260426T00Z_MSC_RDPS_Precip-Accum24h_Sfc_RLatLon0.09_PT036H.grib2 2026-04-26 02:49 1.9M
20260426T00Z_MSC_RDPS_Precip-Accum3h_Sfc_RLatLon0.09_PT036H.grib2 2026-04-26 02:49 1.4M
20260426T00Z_MSC_RDPS_Precip-Accum6h_Sfc_RLatLon0.09_PT036H.grib2 2026-04-26 02:49 1.6M
20260426T00Z_MSC_RDPS_Precip-Accum_Sfc_RLatLon0.09_PT036H.grib2 2026-04-26 02:49 2.0M
20260426T00Z_MSC_RDPS_PrecipRate_Sfc_RLatLon0.09_PT036H.grib2 2026-04-26 02:49 191K
20260426T00Z_MSC_RDPS_PrecipType-Instant_Sfc_RLatLon0.09_PT036H.grib2 2026-04-26 02:49 614K
20260426T00Z_MSC_RDPS_Pressure-Trend3h_Sfc_RLatLon0.09_PT036H.grib2 2026-04-26 02:49 1.2M
20260426T00Z_MSC_RDPS_Pressure_MSL_RLatLon0.09_PT036H.grib2 2026-04-26 02:49 326K
20260426T00Z_MSC_RDPS_Pressure_PVU-1.5_RLatLon0.09_PT036H.grib2 2026-04-26 02:49 2.3M
20260426T00Z_MSC_RDPS_Pressure_PVU-1_RLatLon0.09_PT036H.grib2 2026-04-26 02:49 2.4M
20260426T00Z_MSC_RDPS_Pressure_PVU-2_RLatLon0.09_PT036H.grib2 2026-04-26 02:49 2.4M
20260426T00Z_MSC_RDPS_Pressure_Sfc_RLatLon0.09_PT036H.grib2 2026-04-26 02:49 500K
20260426T00Z_MSC_RDPS_RadiativeTemp_Sfc_RLatLon0.09_PT036H.grib2 2026-04-26 02:49 305K
20260426T00Z_MSC_RDPS_Rain-Accum12h_Sfc_RLatLon0.09_PT036H.grib2 2026-04-26 02:49 1.1M
20260426T00Z_MSC_RDPS_Rain-Accum1h_Sfc_RLatLon0.09_PT036H.grib2 2026-04-26 02:49 628K
20260426T00Z_MSC_RDPS_Rain-Accum24h_Sfc_RLatLon0.09_PT036H.grib2 2026-04-26 02:49 1.4M
20260426T00Z_MSC_RDPS_Rain-Accum3h_Sfc_RLatLon0.09_PT036H.grib2 2026-04-26 02:49 708K
20260426T00Z_MSC_RDPS_Rain-Accum6h_Sfc_RLatLon0.09_PT036H.grib2 2026-04-26 02:49 968K
20260426T00Z_MSC_RDPS_Rain-Accum_Sfc_RLatLon0.09_PT036H.grib2 2026-04-26 02:49 1.5M
20260426T00Z_MSC_RDPS_RelativeHumidity_AGL-2m_RLatLon0.09_PT036H.grib2 2026-04-26 02:49 1.0M
20260426T00Z_MSC_RDPS_RelativeHumidity_IsbL-0010_RLatLon0.09_PT036H.grib2 2026-04-26 02:49 636K
20260426T00Z_MSC_RDPS_RelativeHumidity_IsbL-0020_RLatLon0.09_PT036H.grib2 2026-04-26 02:49 657K
20260426T00Z_MSC_RDPS_RelativeHumidity_IsbL-0030_RLatLon0.09_PT036H.grib2 2026-04-26 02:49 542K
20260426T00Z_MSC_RDPS_RelativeHumidity_IsbL-0050_RLatLon0.09_PT036H.grib2 2026-04-26 02:49 325K
20260426T00Z_MSC_RDPS_RelativeHumidity_IsbL-0100_RLatLon0.09_PT036H.grib2 2026-04-26 02:49 270K
20260426T00Z_MSC_RDPS_RelativeHumidity_IsbL-0150_RLatLon0.09_PT036H.grib2 2026-04-26 02:49 399K
20260426T00Z_MSC_RDPS_RelativeHumidity_IsbL-0175_RLatLon0.09_PT036H.grib2 2026-04-26 02:49 468K
20260426T00Z_MSC_RDPS_RelativeHumidity_IsbL-0200_RLatLon0.09_PT036H.grib2 2026-04-26 02:49 545K
20260426T00Z_MSC_RDPS_RelativeHumidity_IsbL-0225_RLatLon0.09_PT036H.grib2 2026-04-26 02:49 613K
20260426T00Z_MSC_RDPS_RelativeHumidity_IsbL-0250_RLatLon0.09_PT036H.grib2 2026-04-26 02:49 682K
20260426T00Z_MSC_RDPS_RelativeHumidity_IsbL-0275_RLatLon0.09_PT036H.grib2 2026-04-26 02:49 708K
20260426T00Z_MSC_RDPS_RelativeHumidity_IsbL-0300_RLatLon0.09_PT036H.grib2 2026-04-26 02:49 750K
20260426T00Z_MSC_RDPS_RelativeHumidity_IsbL-0350_RLatLon0.09_PT036H.grib2 2026-04-26 02:49 774K
20260426T00Z_MSC_RDPS_RelativeHumidity_IsbL-0400_RLatLon0.09_PT036H.grib2 2026-04-26 02:49 796K
20260426T00Z_MSC_RDPS_RelativeHumidity_IsbL-0450_RLatLon0.09_PT036H.grib2 2026-04-26 02:49 811K
20260426T00Z_MSC_RDPS_RelativeHumidity_IsbL-0500_RLatLon0.09_PT036H.grib2 2026-04-26 02:49 818K
20260426T00Z_MSC_RDPS_RelativeHumidity_IsbL-0550_RLatLon0.09_PT036H.grib2 2026-04-26 02:49 830K
20260426T00Z_MSC_RDPS_RelativeHumidity_IsbL-0600_RLatLon0.09_PT036H.grib2 2026-04-26 02:49 848K
20260426T00Z_MSC_RDPS_RelativeHumidity_IsbL-0650_RLatLon0.09_PT036H.grib2 2026-04-26 02:49 861K
20260426T00Z_MSC_RDPS_RelativeHumidity_IsbL-0700_RLatLon0.09_PT036H.grib2 2026-04-26 02:49 895K
20260426T00Z_MSC_RDPS_RelativeHumidity_IsbL-0750_RLatLon0.09_PT036H.grib2 2026-04-26 02:49 942K
20260426T00Z_MSC_RDPS_RelativeHumidity_IsbL-0800_RLatLon0.09_PT036H.grib2 2026-04-26 02:49 1.0M
20260426T00Z_MSC_RDPS_RelativeHumidity_IsbL-0850_RLatLon0.09_PT036H.grib2 2026-04-26 02:49 1.1M
20260426T00Z_MSC_RDPS_RelativeHumidity_IsbL-0875_RLatLon0.09_PT036H.grib2 2026-04-26 02:49 1.1M
20260426T00Z_MSC_RDPS_RelativeHumidity_IsbL-0900_RLatLon0.09_PT036H.grib2 2026-04-26 02:49 1.1M
20260426T00Z_MSC_RDPS_RelativeHumidity_IsbL-0925_RLatLon0.09_PT036H.grib2 2026-04-26 02:49 1.1M
20260426T00Z_MSC_RDPS_RelativeHumidity_IsbL-0950_RLatLon0.09_PT036H.grib2 2026-04-26 02:49 1.1M
20260426T00Z_MSC_RDPS_RelativeHumidity_IsbL-0970_RLatLon0.09_PT036H.grib2 2026-04-26 02:49 1.1M
20260426T00Z_MSC_RDPS_RelativeHumidity_IsbL-0985_RLatLon0.09_PT036H.grib2 2026-04-26 02:49 1.0M
20260426T00Z_MSC_RDPS_RelativeHumidity_IsbL-1000_RLatLon0.09_PT036H.grib2 2026-04-26 02:49 1.0M
20260426T00Z_MSC_RDPS_RelativeHumidity_IsbL-1015_RLatLon0.09_PT036H.grib2 2026-04-26 02:49 1.0M
20260426T00Z_MSC_RDPS_Runoff-Accum_Sfc_RLatLon0.09_PT036H.grib2 2026-04-26 02:49 76K
20260426T00Z_MSC_RDPS_SWEATIndex_Sfc_RLatLon0.09_PT036H.grib2 2026-04-26 02:49 2.4M
20260426T00Z_MSC_RDPS_SeeingIndex_EAtm_RLatLon0.09_PT036H.grib2 2026-04-26 02:49 1.0M
20260426T00Z_MSC_RDPS_SensibleHeatNetFlux_Sfc_RLatLon0.09_PT036H.grib2 2026-04-26 02:49 310K
20260426T00Z_MSC_RDPS_ShowalterIndex_IsbL-0500_RLatLon0.09_PT036H.grib2 2026-04-26 02:49 2.6M
20260426T00Z_MSC_RDPS_SkyTransparencyIndex_EAtm_RLatLon0.09_PT036H.grib2 2026-04-26 02:49 735K
20260426T00Z_MSC_RDPS_Snow-Accum12h_Sfc_RLatLon0.09_PT036H.grib2 2026-04-26 02:49 623K
20260426T00Z_MSC_RDPS_Snow-Accum1h_Sfc_RLatLon0.09_PT036H.grib2 2026-04-26 02:49 505K
20260426T00Z_MSC_RDPS_Snow-Accum24h_Sfc_RLatLon0.09_PT036H.grib2 2026-04-26 02:49 686K
20260426T00Z_MSC_RDPS_Snow-Accum3h_Sfc_RLatLon0.09_PT036H.grib2 2026-04-26 02:49 454K
20260426T00Z_MSC_RDPS_Snow-Accum6h_Sfc_RLatLon0.09_PT036H.grib2 2026-04-26 02:49 590K
20260426T00Z_MSC_RDPS_Snow-Accum_Sfc_RLatLon0.09_PT036H.grib2 2026-04-26 02:49 783K
20260426T00Z_MSC_RDPS_SnowDensity_Sfc_RLatLon0.09_PT036H.grib2 2026-04-26 02:49 184K
20260426T00Z_MSC_RDPS_SnowDepth_Sfc_RLatLon0.09_PT036H.grib2 2026-04-26 02:49 732K
20260426T00Z_MSC_RDPS_SoilTemp_DBS-0to10cm_RLatLon0.09_PT036H.grib2 2026-04-26 02:49 228K
20260426T00Z_MSC_RDPS_SoilTemp_Sfc_RLatLon0.09_PT036H.grib2 2026-04-26 02:49 269K
20260426T00Z_MSC_RDPS_SoilVolumetricIceContent_Sfc_RLatLon0.09_PT036H.grib2 2026-04-26 02:49 169K
20260426T00Z_MSC_RDPS_SoilVolumetricWaterContent_DBS-0to10cm_RLatLon0.09_PT036H.grib2 2026-04-26 02:49 258K
20260426T00Z_MSC_RDPS_SoilVolumetricWaterContent_DBS-0to1cm_RLatLon0.09_PT036H.grib2 2026-04-26 02:49 340K
20260426T00Z_MSC_RDPS_SpecificHumidity_AGL-120m_RLatLon0.09_PT036H.grib2 2026-04-26 02:49 488K
20260426T00Z_MSC_RDPS_SpecificHumidity_AGL-2m_RLatLon0.09_PT036H.grib2 2026-04-26 02:49 657K
20260426T00Z_MSC_RDPS_SpecificHumidity_AGL-40m_RLatLon0.09_PT036H.grib2 2026-04-26 02:49 494K
20260426T00Z_MSC_RDPS_SpecificHumidity_AGL-80m_RLatLon0.09_PT036H.grib2 2026-04-26 02:49 490K
20260426T00Z_MSC_RDPS_SpecificHumidity_IsbL-0001_RLatLon0.09_PT036H.grib2 2026-04-26 02:49 340K
20260426T00Z_MSC_RDPS_SpecificHumidity_IsbL-0005_RLatLon0.09_PT036H.grib2 2026-04-26 02:49 357K
20260426T00Z_MSC_RDPS_SpecificHumidity_IsbL-0010_RLatLon0.09_PT036H.grib2 2026-04-26 02:49 399K
20260426T00Z_MSC_RDPS_SpecificHumidity_IsbL-0020_RLatLon0.09_PT036H.grib2 2026-04-26 02:49 391K
20260426T00Z_MSC_RDPS_SpecificHumidity_IsbL-0030_RLatLon0.09_PT036H.grib2 2026-04-26 02:49 477K
20260426T00Z_MSC_RDPS_SpecificHumidity_IsbL-0050_RLatLon0.09_PT036H.grib2 2026-04-26 02:49 471K
20260426T00Z_MSC_RDPS_SpecificHumidity_IsbL-0100_RLatLon0.09_PT036H.grib2 2026-04-26 02:49 445K
20260426T00Z_MSC_RDPS_SpecificHumidity_IsbL-0150_RLatLon0.09_PT036H.grib2 2026-04-26 02:49 350K
20260426T00Z_MSC_RDPS_SpecificHumidity_IsbL-0175_RLatLon0.09_PT036H.grib2 2026-04-26 02:49 454K
20260426T00Z_MSC_RDPS_SpecificHumidity_IsbL-0200_RLatLon0.09_PT036H.grib2 2026-04-26 02:49 449K
20260426T00Z_MSC_RDPS_SpecificHumidity_IsbL-0225_RLatLon0.09_PT036H.grib2 2026-04-26 02:49 553K
20260426T00Z_MSC_RDPS_SpecificHumidity_IsbL-0250_RLatLon0.09_PT036H.grib2 2026-04-26 02:49 548K
20260426T00Z_MSC_RDPS_SpecificHumidity_IsbL-0275_RLatLon0.09_PT036H.grib2 2026-04-26 02:49 464K
20260426T00Z_MSC_RDPS_SpecificHumidity_IsbL-0300_RLatLon0.09_PT036H.grib2 2026-04-26 02:49 530K
20260426T00Z_MSC_RDPS_SpecificHumidity_IsbL-0350_RLatLon0.09_PT036H.grib2 2026-04-26 02:49 522K
20260426T00Z_MSC_RDPS_SpecificHumidity_IsbL-0400_RLatLon0.09_PT036H.grib2 2026-04-26 02:49 511K
20260426T00Z_MSC_RDPS_SpecificHumidity_IsbL-0450_RLatLon0.09_PT036H.grib2 2026-04-26 02:49 572K
20260426T00Z_MSC_RDPS_SpecificHumidity_IsbL-0500_RLatLon0.09_PT036H.grib2 2026-04-26 02:49 509K
20260426T00Z_MSC_RDPS_SpecificHumidity_IsbL-0550_RLatLon0.09_PT036H.grib2 2026-04-26 02:49 560K
20260426T00Z_MSC_RDPS_SpecificHumidity_IsbL-0600_RLatLon0.09_PT036H.grib2 2026-04-26 02:49 626K
20260426T00Z_MSC_RDPS_SpecificHumidity_IsbL-0650_RLatLon0.09_PT036H.grib2 2026-04-26 02:49 668K
20260426T00Z_MSC_RDPS_SpecificHumidity_IsbL-0700_RLatLon0.09_PT036H.grib2 2026-04-26 02:49 588K
20260426T00Z_MSC_RDPS_SpecificHumidity_IsbL-0750_RLatLon0.09_PT036H.grib2 2026-04-26 02:49 647K
20260426T00Z_MSC_RDPS_SpecificHumidity_IsbL-0800_RLatLon0.09_PT036H.grib2 2026-04-26 02:49 725K
20260426T00Z_MSC_RDPS_SpecificHumidity_IsbL-0850_RLatLon0.09_PT036H.grib2 2026-04-26 02:49 805K
20260426T00Z_MSC_RDPS_SpecificHumidity_IsbL-0875_RLatLon0.09_PT036H.grib2 2026-04-26 02:49 825K
20260426T00Z_MSC_RDPS_SpecificHumidity_IsbL-0900_RLatLon0.09_PT036H.grib2 2026-04-26 02:49 832K
20260426T00Z_MSC_RDPS_SpecificHumidity_IsbL-0925_RLatLon0.09_PT036H.grib2 2026-04-26 02:49 834K
20260426T00Z_MSC_RDPS_SpecificHumidity_IsbL-0950_RLatLon0.09_PT036H.grib2 2026-04-26 02:49 829K
20260426T00Z_MSC_RDPS_SpecificHumidity_IsbL-0970_RLatLon0.09_PT036H.grib2 2026-04-26 02:49 822K
20260426T00Z_MSC_RDPS_SpecificHumidity_IsbL-0985_RLatLon0.09_PT036H.grib2 2026-04-26 02:49 818K
20260426T00Z_MSC_RDPS_SpecificHumidity_IsbL-1000_RLatLon0.09_PT036H.grib2 2026-04-26 02:49 675K
20260426T00Z_MSC_RDPS_SpecificHumidity_IsbL-1015_RLatLon0.09_PT036H.grib2 2026-04-26 02:49 667K
20260426T00Z_MSC_RDPS_SpecificHumidity_Sfc_RLatLon0.09_PT036H.grib2 2026-04-26 02:49 291K
20260426T00Z_MSC_RDPS_StormRelativeHelicity_EtaL-10000_RLatLon0.09_PT036H.grib2 2026-04-26 02:49 1.1M
20260426T00Z_MSC_RDPS_StormSeverityIndex_EtaL-10000_RLatLon0.09_PT036H.grib2 2026-04-26 02:49 1.2M
20260426T00Z_MSC_RDPS_Thickness_IsbL-0850to0700_RLatLon0.09_PT036H.grib2 2026-04-26 02:49 174K
20260426T00Z_MSC_RDPS_Thickness_IsbL-1000to0500_RLatLon0.09_PT036H.grib2 2026-04-26 02:49 198K
20260426T00Z_MSC_RDPS_Thickness_IsbL-1000to0850_RLatLon0.09_PT036H.grib2 2026-04-26 02:49 184K
20260426T00Z_MSC_RDPS_TotalCloudCover_Sfc_RLatLon0.09_PT036H.grib2 2026-04-26 02:49 683K
20260426T00Z_MSC_RDPS_TotalTotalsIndex_Sfc_RLatLon0.09_PT036H.grib2 2026-04-26 02:49 2.4M
20260426T00Z_MSC_RDPS_UVIndex-ClearSky_Sfc_RLatLon0.09_PT036H.grib2 2026-04-26 02:49 138K
20260426T00Z_MSC_RDPS_UVIndex_Sfc_RLatLon0.09_PT036H.grib2 2026-04-26 02:49 335K
20260426T00Z_MSC_RDPS_UpwardLongwaveRadiationFlux_NTAtm_RLatLon0.09_PT036H.grib2 2026-04-26 02:49 481K
20260426T00Z_MSC_RDPS_UpwardShortwaveRadiationFlux_NTAtm_RLatLon0.09_PT036H.grib2 2026-04-26 02:49 303K
20260426T00Z_MSC_RDPS_VerticalVelocity_IsbL-0250_RLatLon0.09_PT036H.grib2 2026-04-26 02:49 538K
20260426T00Z_MSC_RDPS_VerticalVelocity_IsbL-0500_RLatLon0.09_PT036H.grib2 2026-04-26 02:49 538K
20260426T00Z_MSC_RDPS_VerticalVelocity_IsbL-0700_RLatLon0.09_PT036H.grib2 2026-04-26 02:49 588K
20260426T00Z_MSC_RDPS_VerticalVelocity_IsbL-0850_RLatLon0.09_PT036H.grib2 2026-04-26 02:49 696K
20260426T00Z_MSC_RDPS_VerticalWindShear_EtaL-6500_RLatLon0.09_PT036H.grib2 2026-04-26 02:49 1.2M
20260426T00Z_MSC_RDPS_WindChill_Sfc_RLatLon0.09_PT036H.grib2 2026-04-26 02:49 1.3M
20260426T00Z_MSC_RDPS_WindDir_AGL-10m_RLatLon0.09_PT036H.grib2 2026-04-26 02:49 1.0M
20260426T00Z_MSC_RDPS_WindDir_AGL-120m_RLatLon0.09_PT036H.grib2 2026-04-26 02:49 619K
20260426T00Z_MSC_RDPS_WindDir_AGL-40m_RLatLon0.09_PT036H.grib2 2026-04-26 02:49 654K
20260426T00Z_MSC_RDPS_WindDir_AGL-80m_RLatLon0.09_PT036H.grib2 2026-04-26 02:49 633K
20260426T00Z_MSC_RDPS_WindDir_IsbL-0001_RLatLon0.09_PT036H.grib2 2026-04-26 02:49 312K
20260426T00Z_MSC_RDPS_WindDir_IsbL-0005_RLatLon0.09_PT036H.grib2 2026-04-26 02:49 351K
20260426T00Z_MSC_RDPS_WindDir_IsbL-0010_RLatLon0.09_PT036H.grib2 2026-04-26 02:49 380K
20260426T00Z_MSC_RDPS_WindDir_IsbL-0020_RLatLon0.09_PT036H.grib2 2026-04-26 02:49 406K
20260426T00Z_MSC_RDPS_WindDir_IsbL-0030_RLatLon0.09_PT036H.grib2 2026-04-26 02:49 416K
20260426T00Z_MSC_RDPS_WindDir_IsbL-0050_RLatLon0.09_PT036H.grib2 2026-04-26 02:49 425K
20260426T00Z_MSC_RDPS_WindDir_IsbL-0100_RLatLon0.09_PT036H.grib2 2026-04-26 02:49 403K
20260426T00Z_MSC_RDPS_WindDir_IsbL-0150_RLatLon0.09_PT036H.grib2 2026-04-26 02:49 398K
20260426T00Z_MSC_RDPS_WindDir_IsbL-0175_RLatLon0.09_PT036H.grib2 2026-04-26 02:49 421K
20260426T00Z_MSC_RDPS_WindDir_IsbL-0200_RLatLon0.09_PT036H.grib2 2026-04-26 02:49 438K
20260426T00Z_MSC_RDPS_WindDir_IsbL-0225_RLatLon0.09_PT036H.grib2 2026-04-26 02:49 445K
20260426T00Z_MSC_RDPS_WindDir_IsbL-0250_RLatLon0.09_PT036H.grib2 2026-04-26 02:49 446K
20260426T00Z_MSC_RDPS_WindDir_IsbL-0275_RLatLon0.09_PT036H.grib2 2026-04-26 02:49 473K
20260426T00Z_MSC_RDPS_WindDir_IsbL-0300_RLatLon0.09_PT036H.grib2 2026-04-26 02:49 466K
20260426T00Z_MSC_RDPS_WindDir_IsbL-0350_RLatLon0.09_PT036H.grib2 2026-04-26 02:49 491K
20260426T00Z_MSC_RDPS_WindDir_IsbL-0400_RLatLon0.09_PT036H.grib2 2026-04-26 02:49 506K
20260426T00Z_MSC_RDPS_WindDir_IsbL-0450_RLatLon0.09_PT036H.grib2 2026-04-26 02:49 519K
20260426T00Z_MSC_RDPS_WindDir_IsbL-0500_RLatLon0.09_PT036H.grib2 2026-04-26 02:49 536K
20260426T00Z_MSC_RDPS_WindDir_IsbL-0550_RLatLon0.09_PT036H.grib2 2026-04-26 02:49 546K
20260426T00Z_MSC_RDPS_WindDir_IsbL-0600_RLatLon0.09_PT036H.grib2 2026-04-26 02:49 578K
20260426T00Z_MSC_RDPS_WindDir_IsbL-0650_RLatLon0.09_PT036H.grib2 2026-04-26 02:49 626K
20260426T00Z_MSC_RDPS_WindDir_IsbL-0700_RLatLon0.09_PT036H.grib2 2026-04-26 02:49 668K
20260426T00Z_MSC_RDPS_WindDir_IsbL-0750_RLatLon0.09_PT036H.grib2 2026-04-26 02:49 718K
20260426T00Z_MSC_RDPS_WindDir_IsbL-0800_RLatLon0.09_PT036H.grib2 2026-04-26 02:49 801K
20260426T00Z_MSC_RDPS_WindDir_IsbL-0850_RLatLon0.09_PT036H.grib2 2026-04-26 02:49 870K
20260426T00Z_MSC_RDPS_WindDir_IsbL-0875_RLatLon0.09_PT036H.grib2 2026-04-26 02:49 891K
20260426T00Z_MSC_RDPS_WindDir_IsbL-0900_RLatLon0.09_PT036H.grib2 2026-04-26 02:49 908K
20260426T00Z_MSC_RDPS_WindDir_IsbL-0925_RLatLon0.09_PT036H.grib2 2026-04-26 02:49 920K
20260426T00Z_MSC_RDPS_WindDir_IsbL-0950_RLatLon0.09_PT036H.grib2 2026-04-26 02:49 921K
20260426T00Z_MSC_RDPS_WindDir_IsbL-0970_RLatLon0.09_PT036H.grib2 2026-04-26 02:49 928K
20260426T00Z_MSC_RDPS_WindDir_IsbL-0985_RLatLon0.09_PT036H.grib2 2026-04-26 02:49 944K
20260426T00Z_MSC_RDPS_WindDir_IsbL-1000_RLatLon0.09_PT036H.grib2 2026-04-26 02:49 963K
20260426T00Z_MSC_RDPS_WindDir_IsbL-1015_RLatLon0.09_PT036H.grib2 2026-04-26 02:49 1.0M
20260426T00Z_MSC_RDPS_WindGust-Max_AGL-10m_RLatLon0.09_PT036H.grib2 2026-04-26 02:49 967K
20260426T00Z_MSC_RDPS_WindGust-Min_AGL-10m_RLatLon0.09_PT036H.grib2 2026-04-26 02:49 932K
20260426T00Z_MSC_RDPS_WindGust_AGL-10m_RLatLon0.09_PT036H.grib2 2026-04-26 02:49 953K
20260426T00Z_MSC_RDPS_WindSpeed_AGL-10m_RLatLon0.09_PT036H.grib2 2026-04-26 02:49 859K
20260426T00Z_MSC_RDPS_WindSpeed_AGL-120m_RLatLon0.09_PT036H.grib2 2026-04-26 02:49 562K
20260426T00Z_MSC_RDPS_WindSpeed_AGL-40m_RLatLon0.09_PT036H.grib2 2026-04-26 02:49 566K
20260426T00Z_MSC_RDPS_WindSpeed_AGL-80m_RLatLon0.09_PT036H.grib2 2026-04-26 02:49 563K
20260426T00Z_MSC_RDPS_WindSpeed_IsbL-0001_RLatLon0.09_PT036H.grib2 2026-04-26 02:49 251K
20260426T00Z_MSC_RDPS_WindSpeed_IsbL-0005_RLatLon0.09_PT036H.grib2 2026-04-26 02:49 301K
20260426T00Z_MSC_RDPS_WindSpeed_IsbL-0010_RLatLon0.09_PT036H.grib2 2026-04-26 02:49 405K
20260426T00Z_MSC_RDPS_WindSpeed_IsbL-0020_RLatLon0.09_PT036H.grib2 2026-04-26 02:49 325K
20260426T00Z_MSC_RDPS_WindSpeed_IsbL-0030_RLatLon0.09_PT036H.grib2 2026-04-26 02:49 324K
20260426T00Z_MSC_RDPS_WindSpeed_IsbL-0050_RLatLon0.09_PT036H.grib2 2026-04-26 02:49 356K
20260426T00Z_MSC_RDPS_WindSpeed_IsbL-0100_RLatLon0.09_PT036H.grib2 2026-04-26 02:49 470K
20260426T00Z_MSC_RDPS_WindSpeed_IsbL-0150_RLatLon0.09_PT036H.grib2 2026-04-26 02:49 367K
20260426T00Z_MSC_RDPS_WindSpeed_IsbL-0175_RLatLon0.09_PT036H.grib2 2026-04-26 02:49 394K
20260426T00Z_MSC_RDPS_WindSpeed_IsbL-0200_RLatLon0.09_PT036H.grib2 2026-04-26 02:49 431K
20260426T00Z_MSC_RDPS_WindSpeed_IsbL-0225_RLatLon0.09_PT036H.grib2 2026-04-26 02:49 440K
20260426T00Z_MSC_RDPS_WindSpeed_IsbL-0250_RLatLon0.09_PT036H.grib2 2026-04-26 02:49 443K
20260426T00Z_MSC_RDPS_WindSpeed_IsbL-0275_RLatLon0.09_PT036H.grib2 2026-04-26 02:49 460K
20260426T00Z_MSC_RDPS_WindSpeed_IsbL-0300_RLatLon0.09_PT036H.grib2 2026-04-26 02:49 459K
20260426T00Z_MSC_RDPS_WindSpeed_IsbL-0350_RLatLon0.09_PT036H.grib2 2026-04-26 02:49 452K
20260426T00Z_MSC_RDPS_WindSpeed_IsbL-0400_RLatLon0.09_PT036H.grib2 2026-04-26 02:49 458K
20260426T00Z_MSC_RDPS_WindSpeed_IsbL-0450_RLatLon0.09_PT036H.grib2 2026-04-26 02:49 458K
20260426T00Z_MSC_RDPS_WindSpeed_IsbL-0500_RLatLon0.09_PT036H.grib2 2026-04-26 02:49 573K
20260426T00Z_MSC_RDPS_WindSpeed_IsbL-0550_RLatLon0.09_PT036H.grib2 2026-04-26 02:49 572K
20260426T00Z_MSC_RDPS_WindSpeed_IsbL-0600_RLatLon0.09_PT036H.grib2 2026-04-26 02:49 584K
20260426T00Z_MSC_RDPS_WindSpeed_IsbL-0650_RLatLon0.09_PT036H.grib2 2026-04-26 02:49 606K
20260426T00Z_MSC_RDPS_WindSpeed_IsbL-0700_RLatLon0.09_PT036H.grib2 2026-04-26 02:49 629K
20260426T00Z_MSC_RDPS_WindSpeed_IsbL-0750_RLatLon0.09_PT036H.grib2 2026-04-26 02:49 702K
20260426T00Z_MSC_RDPS_WindSpeed_IsbL-0800_RLatLon0.09_PT036H.grib2 2026-04-26 02:49 758K
20260426T00Z_MSC_RDPS_WindSpeed_IsbL-0850_RLatLon0.09_PT036H.grib2 2026-04-26 02:49 772K
20260426T00Z_MSC_RDPS_WindSpeed_IsbL-0875_RLatLon0.09_PT036H.grib2 2026-04-26 02:49 791K
20260426T00Z_MSC_RDPS_WindSpeed_IsbL-0900_RLatLon0.09_PT036H.grib2 2026-04-26 02:49 852K
20260426T00Z_MSC_RDPS_WindSpeed_IsbL-0925_RLatLon0.09_PT036H.grib2 2026-04-26 02:49 865K
20260426T00Z_MSC_RDPS_WindSpeed_IsbL-0950_RLatLon0.09_PT036H.grib2 2026-04-26 02:49 869K
20260426T00Z_MSC_RDPS_WindSpeed_IsbL-0970_RLatLon0.09_PT036H.grib2 2026-04-26 02:49 868K
20260426T00Z_MSC_RDPS_WindSpeed_IsbL-0985_RLatLon0.09_PT036H.grib2 2026-04-26 02:49 868K
20260426T00Z_MSC_RDPS_WindSpeed_IsbL-1000_RLatLon0.09_PT036H.grib2 2026-04-26 02:49 863K
20260426T00Z_MSC_RDPS_WindSpeed_IsbL-1015_RLatLon0.09_PT036H.grib2 2026-04-26 02:49 856K
20260426T00Z_MSC_RDPS_WindU_AGL-10m_RLatLon0.09_PT036H.grib2 2026-04-26 02:49 390K
20260426T00Z_MSC_RDPS_WindU_AGL-120m_RLatLon0.09_PT036H.grib2 2026-04-26 02:49 426K
20260426T00Z_MSC_RDPS_WindU_AGL-40m_RLatLon0.09_PT036H.grib2 2026-04-26 02:49 430K
20260426T00Z_MSC_RDPS_WindU_AGL-80m_RLatLon0.09_PT036H.grib2 2026-04-26 02:49 429K
20260426T00Z_MSC_RDPS_WindU_IsbL-0001_RLatLon0.09_PT036H.grib2 2026-04-26 02:49 291K
20260426T00Z_MSC_RDPS_WindU_IsbL-0005_RLatLon0.09_PT036H.grib2 2026-04-26 02:49 334K
20260426T00Z_MSC_RDPS_WindU_IsbL-0010_RLatLon0.09_PT036H.grib2 2026-04-26 02:49 302K
20260426T00Z_MSC_RDPS_WindU_IsbL-0020_RLatLon0.09_PT036H.grib2 2026-04-26 02:49 318K
20260426T00Z_MSC_RDPS_WindU_IsbL-0030_RLatLon0.09_PT036H.grib2 2026-04-26 02:49 355K
20260426T00Z_MSC_RDPS_WindU_IsbL-0050_RLatLon0.09_PT036H.grib2 2026-04-26 02:49 383K
20260426T00Z_MSC_RDPS_WindU_IsbL-0100_RLatLon0.09_PT036H.grib2 2026-04-26 02:49 428K
20260426T00Z_MSC_RDPS_WindU_IsbL-0150_RLatLon0.09_PT036H.grib2 2026-04-26 02:49 385K
20260426T00Z_MSC_RDPS_WindU_IsbL-0175_RLatLon0.09_PT036H.grib2 2026-04-26 02:49 409K
20260426T00Z_MSC_RDPS_WindU_IsbL-0200_RLatLon0.09_PT036H.grib2 2026-04-26 02:49 328K
20260426T00Z_MSC_RDPS_WindU_IsbL-0225_RLatLon0.09_PT036H.grib2 2026-04-26 02:49 334K
20260426T00Z_MSC_RDPS_WindU_IsbL-0250_RLatLon0.09_PT036H.grib2 2026-04-26 02:49 334K
20260426T00Z_MSC_RDPS_WindU_IsbL-0275_RLatLon0.09_PT036H.grib2 2026-04-26 02:49 349K
20260426T00Z_MSC_RDPS_WindU_IsbL-0300_RLatLon0.09_PT036H.grib2 2026-04-26 02:49 346K
20260426T00Z_MSC_RDPS_WindU_IsbL-0350_RLatLon0.09_PT036H.grib2 2026-04-26 02:49 355K
20260426T00Z_MSC_RDPS_WindU_IsbL-0400_RLatLon0.09_PT036H.grib2 2026-04-26 02:49 463K
20260426T00Z_MSC_RDPS_WindU_IsbL-0450_RLatLon0.09_PT036H.grib2 2026-04-26 02:49 464K
20260426T00Z_MSC_RDPS_WindU_IsbL-0500_RLatLon0.09_PT036H.grib2 2026-04-26 02:49 463K
20260426T00Z_MSC_RDPS_WindU_IsbL-0550_RLatLon0.09_PT036H.grib2 2026-04-26 02:49 464K
20260426T00Z_MSC_RDPS_WindU_IsbL-0600_RLatLon0.09_PT036H.grib2 2026-04-26 02:49 473K
20260426T00Z_MSC_RDPS_WindU_IsbL-0650_RLatLon0.09_PT036H.grib2 2026-04-26 02:49 492K
20260426T00Z_MSC_RDPS_WindU_IsbL-0700_RLatLon0.09_PT036H.grib2 2026-04-26 02:49 511K
20260426T00Z_MSC_RDPS_WindU_IsbL-0750_RLatLon0.09_PT036H.grib2 2026-04-26 02:49 537K
20260426T00Z_MSC_RDPS_WindU_IsbL-0800_RLatLon0.09_PT036H.grib2 2026-04-26 02:49 585K
20260426T00Z_MSC_RDPS_WindU_IsbL-0850_RLatLon0.09_PT036H.grib2 2026-04-26 02:49 635K
20260426T00Z_MSC_RDPS_WindU_IsbL-0875_RLatLon0.09_PT036H.grib2 2026-04-26 02:49 650K
20260426T00Z_MSC_RDPS_WindU_IsbL-0900_RLatLon0.09_PT036H.grib2 2026-04-26 02:49 660K
20260426T00Z_MSC_RDPS_WindU_IsbL-0925_RLatLon0.09_PT036H.grib2 2026-04-26 02:49 663K
20260426T00Z_MSC_RDPS_WindU_IsbL-0950_RLatLon0.09_PT036H.grib2 2026-04-26 02:49 662K
20260426T00Z_MSC_RDPS_WindU_IsbL-0970_RLatLon0.09_PT036H.grib2 2026-04-26 02:49 660K
20260426T00Z_MSC_RDPS_WindU_IsbL-0985_RLatLon0.09_PT036H.grib2 2026-04-26 02:49 660K
20260426T00Z_MSC_RDPS_WindU_IsbL-1000_RLatLon0.09_PT036H.grib2 2026-04-26 02:49 659K
20260426T00Z_MSC_RDPS_WindU_IsbL-1015_RLatLon0.09_PT036H.grib2 2026-04-26 02:49 654K
20260426T00Z_MSC_RDPS_WindV_AGL-10m_RLatLon0.09_PT036H.grib2 2026-04-26 02:49 439K
20260426T00Z_MSC_RDPS_WindV_AGL-120m_RLatLon0.09_PT036H.grib2 2026-04-26 02:49 426K
20260426T00Z_MSC_RDPS_WindV_AGL-40m_RLatLon0.09_PT036H.grib2 2026-04-26 02:49 548K
20260426T00Z_MSC_RDPS_WindV_AGL-80m_RLatLon0.09_PT036H.grib2 2026-04-26 02:49 546K
20260426T00Z_MSC_RDPS_WindV_IsbL-0001_RLatLon0.09_PT036H.grib2 2026-04-26 02:49 290K
20260426T00Z_MSC_RDPS_WindV_IsbL-0005_RLatLon0.09_PT036H.grib2 2026-04-26 02:49 333K
20260426T00Z_MSC_RDPS_WindV_IsbL-0010_RLatLon0.09_PT036H.grib2 2026-04-26 02:49 303K
20260426T00Z_MSC_RDPS_WindV_IsbL-0020_RLatLon0.09_PT036H.grib2 2026-04-26 02:49 319K
20260426T00Z_MSC_RDPS_WindV_IsbL-0030_RLatLon0.09_PT036H.grib2 2026-04-26 02:49 357K
20260426T00Z_MSC_RDPS_WindV_IsbL-0050_RLatLon0.09_PT036H.grib2 2026-04-26 02:49 348K
20260426T00Z_MSC_RDPS_WindV_IsbL-0100_RLatLon0.09_PT036H.grib2 2026-04-26 02:49 327K
20260426T00Z_MSC_RDPS_WindV_IsbL-0150_RLatLon0.09_PT036H.grib2 2026-04-26 02:49 383K
20260426T00Z_MSC_RDPS_WindV_IsbL-0175_RLatLon0.09_PT036H.grib2 2026-04-26 02:49 314K
20260426T00Z_MSC_RDPS_WindV_IsbL-0200_RLatLon0.09_PT036H.grib2 2026-04-26 02:49 328K
20260426T00Z_MSC_RDPS_WindV_IsbL-0225_RLatLon0.09_PT036H.grib2 2026-04-26 02:49 332K
20260426T00Z_MSC_RDPS_WindV_IsbL-0250_RLatLon0.09_PT036H.grib2 2026-04-26 02:49 333K
20260426T00Z_MSC_RDPS_WindV_IsbL-0275_RLatLon0.09_PT036H.grib2 2026-04-26 02:49 371K
20260426T00Z_MSC_RDPS_WindV_IsbL-0300_RLatLon0.09_PT036H.grib2 2026-04-26 02:49 343K
20260426T00Z_MSC_RDPS_WindV_IsbL-0350_RLatLon0.09_PT036H.grib2 2026-04-26 02:49 352K
20260426T00Z_MSC_RDPS_WindV_IsbL-0400_RLatLon0.09_PT036H.grib2 2026-04-26 02:49 356K
20260426T00Z_MSC_RDPS_WindV_IsbL-0450_RLatLon0.09_PT036H.grib2 2026-04-26 02:49 457K
20260426T00Z_MSC_RDPS_WindV_IsbL-0500_RLatLon0.09_PT036H.grib2 2026-04-26 02:49 457K
20260426T00Z_MSC_RDPS_WindV_IsbL-0550_RLatLon0.09_PT036H.grib2 2026-04-26 02:49 457K
20260426T00Z_MSC_RDPS_WindV_IsbL-0600_RLatLon0.09_PT036H.grib2 2026-04-26 02:49 467K
20260426T00Z_MSC_RDPS_WindV_IsbL-0650_RLatLon0.09_PT036H.grib2 2026-04-26 02:49 486K
20260426T00Z_MSC_RDPS_WindV_IsbL-0700_RLatLon0.09_PT036H.grib2 2026-04-26 02:49 505K
20260426T00Z_MSC_RDPS_WindV_IsbL-0750_RLatLon0.09_PT036H.grib2 2026-04-26 02:49 518K
20260426T00Z_MSC_RDPS_WindV_IsbL-0800_RLatLon0.09_PT036H.grib2 2026-04-26 02:49 567K
20260426T00Z_MSC_RDPS_WindV_IsbL-0850_RLatLon0.09_PT036H.grib2 2026-04-26 02:49 619K
20260426T00Z_MSC_RDPS_WindV_IsbL-0875_RLatLon0.09_PT036H.grib2 2026-04-26 02:49 637K
20260426T00Z_MSC_RDPS_WindV_IsbL-0900_RLatLon0.09_PT036H.grib2 2026-04-26 02:49 650K
20260426T00Z_MSC_RDPS_WindV_IsbL-0925_RLatLon0.09_PT036H.grib2 2026-04-26 02:49 659K
20260426T00Z_MSC_RDPS_WindV_IsbL-0950_RLatLon0.09_PT036H.grib2 2026-04-26 02:49 660K
20260426T00Z_MSC_RDPS_WindV_IsbL-0970_RLatLon0.09_PT036H.grib2 2026-04-26 02:49 658K
20260426T00Z_MSC_RDPS_WindV_IsbL-0985_RLatLon0.09_PT036H.grib2 2026-04-26 02:49 799K
20260426T00Z_MSC_RDPS_WindV_IsbL-1000_RLatLon0.09_PT036H.grib2 2026-04-26 02:49 797K
20260426T00Z_MSC_RDPS_WindV_IsbL-1015_RLatLon0.09_PT036H.grib2 2026-04-26 02:49 792K